sensor_id;sensor_type;location;lat;lon;timestamp;pressure;altitude;pressure_sealevel;temperature;humidity
10638;BME280;47007;49.252;8.904;2023-05-21T00:00:38;99375.44;;;18.15;100.00
10638;BME280;47007;49.252;8.904;2023-05-21T00:01:20;99383.50;;;18.15;100.00
10638;BME280;47007;49.252;8.904;2023-05-21T00:02:04;99369.41;;;18.08;100.00
10638;BME280;47007;49.252;8.904;2023-05-21T00:02:46;99389.66;;;18.16;100.00
10638;BME280;47007;49.252;8.904;2023-05-21T00:03:28;99383.50;;;18.15;100.00
10638;BME280;47007;49.252;8.904;2023-05-21T00:04:11;99369.41;;;18.08;100.00
10638;BME280;47007;49.252;8.904;2023-05-21T00:04:53;99370.47;;;18.07;100.00
10638;BME280;47007;49.252;8.904;2023-05-21T00:05:36;99379.19;;;18.14;100.00
10638;BME280;47007;49.252;8.904;2023-05-21T00:06:18;99366.16;;;18.06;100.00
10638;BME280;47007;49.252;8.904;2023-05-21T00:07:01;99366.72;;;18.08;100.00
10638;BME280;47007;49.252;8.904;2023-05-21T00:07:44;99381.63;;;18.16;100.00
10638;BME280;47007;49.252;8.904;2023-05-21T00:08:28;99380.56;;;18.17;100.00
10638;BME280;47007;49.252;8.904;2023-05-21T00:09:09;99384.31;;;18.16;100.00
10638;BME280;47007;49.252;8.904;2023-05-21T00:09:53;99378.38;;;18.14;100.00
10638;BME280;47007;49.252;8.904;2023-05-21T00:10:35;99379.66;;;18.11;100.00
10638;BME280;47007;49.252;8.904;2023-05-21T00:11:17;99388.63;;;18.17;100.00
10638;BME280;47007;49.252;8.904;2023-05-21T00:11:59;99377.06;;;18.16;100.00
10638;BME280;47007;49.252;8.904;2023-05-21T00:12:42;99380.81;;;18.15;100.00
10638;BME280;47007;49.252;8.904;2023-05-21T00:13:24;99382.44;;;18.16;100.00
10638;BME280;47007;49.252;8.904;2023-05-21T00:14:07;99368.81;;;18.06;100.00
10638;BME280;47007;49.252;8.904;2023-05-21T00:14:49;99364.44;;;18.00;100.00
10638;BME280;47007;49.252;8.904;2023-05-21T00:15:30;99375.34;;;18.10;100.00
10638;BME280;47007;49.252;8.904;2023-05-21T00:16:12;99379.81;;;18.05;100.00
10638;BME280;47007;49.252;8.904;2023-05-21T00:16:54;99377.84;;;18.00;100.00
10638;BME280;47007;49.252;8.904;2023-05-21T00:17:36;99375.91;;;17.95;100.00
10638;BME280;47007;49.252;8.904;2023-05-21T00:18:18;99383.88;;;17.90;100.00
10638;BME280;47007;49.252;8.904;2023-05-21T00:19:00;99367.56;;;17.80;100.00
10638;BME280;47007;49.252;8.904;2023-05-21T00:19:42;99371.34;;;17.79;100.00
10638;BME280;47007;49.252;8.904;2023-05-21T00:20:25;99372.38;;;17.78;100.00
10638;BME280;47007;49.252;8.904;2023-05-21T00:21:09;99371.00;;;17.76;100.00
10638;BME280;47007;49.252;8.904;2023-05-21T00:21:52;99363.66;;;17.71;100.00
10638;BME280;47007;49.252;8.904;2023-05-21T00:22:35;99372.63;;;17.77;100.00
10638;BME280;47007;49.252;8.904;2023-05-21T00:23:16;99357.72;;;17.69;100.00
10638;BME280;47007;49.252;8.904;2023-05-21T00:23:59;99364.59;;;17.77;100.00
10638;BME280;47007;49.252;8.904;2023-05-21T00:24:40;99367.75;;;17.74;100.00
10638;BME280;47007;49.252;8.904;2023-05-21T00:25:26;99368.31;;;17.76;100.00
10638;BME280;47007;49.252;8.904;2023-05-21T00:26:08;99356.69;;;17.70;100.00
10638;BME280;47007;49.252;8.904;2023-05-21T00:26:50;99362.72;;;17.77;100.00
10638;BME280;47007;49.252;8.904;2023-05-21T00:27:31;99353.28;;;17.75;100.00
10638;BME280;47007;49.252;8.904;2023-05-21T00:28:16;99348.88;;;17.69;100.00
10638;BME280;47007;49.252;8.904;2023-05-21T00:28:58;99367.34;;;17.82;100.00
10638;BME280;47007;49.252;8.904;2023-05-21T00:29:40;99355.72;;;17.76;100.00
10638;BME280;47007;49.252;8.904;2023-05-21T00:30:24;99368.66;;;17.79;100.00
10638;BME280;47007;49.252;8.904;2023-05-21T00:31:06;99354.00;;;17.70;100.00
10638;BME280;47007;49.252;8.904;2023-05-21T00:31:48;99370.31;;;17.69;100.00
10638;BME280;47007;49.252;8.904;2023-05-21T00:32:31;99357.84;;;17.63;100.00
10638;BME280;47007;49.252;8.904;2023-05-21T00:33:13;99362.28;;;17.57;100.00
10638;BME280;47007;49.252;8.904;2023-05-21T00:33:55;99338.16;;;17.40;100.00
10638;BME280;47007;49.252;8.904;2023-05-21T00:34:37;99351.03;;;17.43;100.00
10638;BME280;47007;49.252;8.904;2023-05-21T00:35:19;99354.81;;;17.42;100.00
10638;BME280;47007;49.252;8.904;2023-05-21T00:36:00;99341.78;;;17.34;100.00
10638;BME280;47007;49.252;8.904;2023-05-21T00:36:44;99349.34;;;17.37;100.00
10638;BME280;47007;49.252;8.904;2023-05-21T00:37:26;99352.47;;;17.34;100.00
10638;BME280;47007;49.252;8.904;2023-05-21T00:38:13;99343.22;;;17.25;100.00
10638;BME280;47007;49.252;8.904;2023-05-21T00:38:55;99336.69;;;17.21;100.00
10638;BME280;47007;49.252;8.904;2023-05-21T00:39:36;99342.03;;;17.21;100.00
10638;BME280;47007;49.252;8.904;2023-05-21T00:40:18;99346.47;;;17.27;100.00
10638;BME280;47007;49.252;8.904;2023-05-21T00:41:02;99337.84;;;17.25;100.00
10638;BME280;47007;49.252;8.904;2023-05-21T00:41:44;99338.91;;;17.24;100.00
10638;BME280;47007;49.252;8.904;2023-05-21T00:42:27;99342.59;;;17.35;100.00
10638;BME280;47007;49.252;8.904;2023-05-21T00:43:11;99330.75;;;17.31;100.00
10638;BME280;47007;49.252;8.904;2023-05-21T00:43:54;99345.03;;;17.36;100.00
10638;BME280;47007;49.252;8.904;2023-05-21T00:44:36;99353.19;;;17.41;100.00
10638;BME280;47007;49.252;8.904;2023-05-21T00:45:19;99341.31;;;17.37;100.00
10638;BME280;47007;49.252;8.904;2023-05-21T00:46:00;99345.94;;;17.42;100.00
10638;BME280;47007;49.252;8.904;2023-05-21T00:46:43;99346.03;;;17.47;100.00
10638;BME280;47007;49.252;8.904;2023-05-21T00:47:25;99343.13;;;17.48;100.00
10638;BME280;47007;49.252;8.904;2023-05-21T00:48:10;99345.31;;;17.51;100.00
10638;BME280;47007;49.252;8.904;2023-05-21T00:48:53;99350.44;;;17.53;100.00
10638;BME280;47007;49.252;8.904;2023-05-21T00:49:35;99348.59;;;17.53;100.00
10638;BME280;47007;49.252;8.904;2023-05-21T00:50:17;99344.28;;;17.52;100.00
10638;BME280;47007;49.252;8.904;2023-05-21T00:50:59;99343.00;;;17.55;100.00
10638;BME280;47007;49.252;8.904;2023-05-21T00:51:41;99338.56;;;17.49;100.00
10638;BME280;47007;49.252;8.904;2023-05-21T00:52:30;99349.16;;;17.55;100.00
10638;BME280;47007;49.252;8.904;2023-05-21T00:53:12;99343.81;;;17.55;100.00
10638;BME280;47007;49.252;8.904;2023-05-21T00:53:56;99340.53;;;17.53;100.00
10638;BME280;47007;49.252;8.904;2023-05-21T00:54:38;99342.72;;;17.56;100.00
10638;BME280;47007;49.252;8.904;2023-05-21T00:55:20;99333.22;;;17.49;100.00
10638;BME280;47007;49.252;8.904;2023-05-21T00:56:03;99335.75;;;17.55;100.00
10638;BME280;47007;49.252;8.904;2023-05-21T00:56:46;99343.63;;;17.62;100.00
10638;BME280;47007;49.252;8.904;2023-05-21T00:57:28;99343.53;;;17.57;100.00
10638;BME280;47007;49.252;8.904;2023-05-21T00:58:10;99344.13;;;17.59;100.00
10638;BME280;47007;49.252;8.904;2023-05-21T00:58:54;99332.75;;;17.52;100.00
10638;BME280;47007;49.252;8.904;2023-05-21T00:59:37;99332.16;;;17.50;100.00
10638;BME280;47007;49.252;8.904;2023-05-21T01:00:19;99343.22;;;17.53;100.00
10638;BME280;47007;49.252;8.904;2023-05-21T01:01:01;99328.47;;;17.39;100.00
10638;BME280;47007;49.252;8.904;2023-05-21T01:01:44;99340.91;;;17.45;100.00
10638;BME280;47007;49.252;8.904;2023-05-21T01:02:26;99344.63;;;17.44;100.00
10638;BME280;47007;49.252;8.904;2023-05-21T01:03:08;99297.25;;;17.16;100.00
10638;BME280;47007;49.252;8.904;2023-05-21T01:03:53;99329.34;;;17.28;100.00
10638;BME280;47007;49.252;8.904;2023-05-21T01:04:38;99314.13;;;17.17;100.00
10638;BME280;47007;49.252;8.904;2023-05-21T01:05:19;99324.25;;;17.15;100.00
10638;BME280;47007;49.252;8.904;2023-05-21T01:06:07;99326.94;;;17.15;100.00
10638;BME280;47007;49.252;8.904;2023-05-21T01:06:49;99331.13;;;17.11;100.00
10638;BME280;47007;49.252;8.904;2023-05-21T01:07:32;99322.91;;;17.01;100.00
10638;BME280;47007;49.252;8.904;2023-05-21T01:08:19;99323.13;;;16.99;100.00
10638;BME280;47007;49.252;8.904;2023-05-21T01:09:02;99328.59;;;17.04;100.00
10638;BME280;47007;49.252;8.904;2023-05-21T01:09:46;99316.63;;;16.95;100.00
10638;BME280;47007;49.252;8.904;2023-05-21T01:10:29;99325.81;;;16.99;100.00
10638;BME280;47007;49.252;8.904;2023-05-21T01:11:11;99326.78;;;16.93;100.00
10638;BME280;47007;49.252;8.904;2023-05-21T01:11:55;99291.44;;;16.79;100.00
10638;BME280;47007;49.252;8.904;2023-05-21T01:12:38;99311.66;;;16.87;100.00
10638;BME280;47007;49.252;8.904;2023-05-21T01:13:25;99330.94;;;17.01;100.00
10638;BME280;47007;49.252;8.904;2023-05-21T01:14:09;99299.06;;;16.87;100.00
10638;BME280;47007;49.252;8.904;2023-05-21T01:14:53;99327.88;;;17.09;100.00
10638;BME280;47007;49.252;8.904;2023-05-21T01:15:35;99321.72;;;17.08;100.00
10638;BME280;47007;49.252;8.904;2023-05-21T01:16:18;99328.81;;;17.14;100.00
10638;BME280;47007;49.252;8.904;2023-05-21T01:17:03;99328.81;;;17.14;100.00
10638;BME280;47007;49.252;8.904;2023-05-21T01:17:46;99331.84;;;17.18;100.00
10638;BME280;47007;49.252;8.904;2023-05-21T01:18:29;99333.19;;;17.20;100.00
10638;BME280;47007;49.252;8.904;2023-05-21T01:19:17;99334.59;;;17.23;100.00
10638;BME280;47007;49.252;8.904;2023-05-21T01:20:00;99316.81;;;17.17;100.00
10638;BME280;47007;49.252;8.904;2023-05-21T01:20:42;99330.63;;;17.26;100.00
10638;BME280;47007;49.252;8.904;2023-05-21T01:21:29;99328.53;;;17.28;100.00
10638;BME280;47007;49.252;8.904;2023-05-21T01:22:11;99321.78;;;17.25;100.00
10638;BME280;47007;49.252;8.904;2023-05-21T01:22:57;99314.44;;;17.20;100.00
10638;BME280;47007;49.252;8.904;2023-05-21T01:23:39;99326.44;;;17.30;100.00
10638;BME280;47007;49.252;8.904;2023-05-21T01:24:21;99317.25;;;17.26;100.00
10638;BME280;47007;49.252;8.904;2023-05-21T01:25:02;99331.53;;;17.31;100.00
10638;BME280;47007;49.252;8.904;2023-05-21T01:25:45;99327.56;;;17.34;100.00
10638;BME280;47007;49.252;8.904;2023-05-21T01:26:27;99327.56;;;17.34;100.00
10638;BME280;47007;49.252;8.904;2023-05-21T01:27:11;99309.56;;;17.29;100.00
10638;BME280;47007;49.252;8.904;2023-05-21T01:27:52;99304.91;;;17.24;100.00
10638;BME280;47007;49.252;8.904;2023-05-21T01:28:34;99321.88;;;17.30;100.00
10638;BME280;47007;49.252;8.904;2023-05-21T01:29:17;99296.44;;;17.16;100.00
10638;BME280;47007;49.252;8.904;2023-05-21T01:29:59;99307.72;;;17.18;100.00
10638;BME280;47007;49.252;8.904;2023-05-21T01:30:42;99310.06;;;17.14;100.00
10638;BME280;47007;49.252;8.904;2023-05-21T01:31:32;99320.78;;;17.14;100.00
10638;BME280;47007;49.252;8.904;2023-05-21T01:33:16;99314.53;;;16.97;100.00
10638;BME280;47007;49.252;8.904;2023-05-21T01:34:00;99321.06;;;16.90;100.00
10638;BME280;47007;49.252;8.904;2023-05-21T01:35:03;99310.00;;;16.86;100.00
10638;BME280;47007;49.252;8.904;2023-05-21T01:36:17;99309.66;;;16.82;100.00
10638;BME280;47007;49.252;8.904;2023-05-21T01:37:14;99316.31;;;16.80;100.00
10638;BME280;47007;49.252;8.904;2023-05-21T01:38:23;99310.72;;;16.81;100.00
10638;BME280;47007;49.252;8.904;2023-05-21T01:39:22;99307.72;;;16.78;100.00
10638;BME280;47007;49.252;8.904;2023-05-21T01:40:59;99291.19;;;16.69;100.00
10638;BME280;47007;49.252;8.904;2023-05-21T01:41:17;99304.09;;;16.72;100.00
10638;BME280;47007;49.252;8.904;2023-05-21T01:41:59;99304.81;;;16.68;100.00
10638;BME280;47007;49.252;8.904;2023-05-21T01:42:44;99311.91;;;16.74;100.00
10638;BME280;47007;49.252;8.904;2023-05-21T01:43:29;99311.31;;;16.72;100.00
10638;BME280;47007;49.252;8.904;2023-05-21T01:44:12;99310.19;;;16.68;100.00
10638;BME280;47007;49.252;8.904;2023-05-21T01:44:58;99298.75;;;16.61;100.00
10638;BME280;47007;49.252;8.904;2023-05-21T01:45:42;99317.16;;;16.69;100.00
10638;BME280;47007;49.252;8.904;2023-05-21T01:46:26;99298.16;;;16.59;100.00
10638;BME280;47007;49.252;8.904;2023-05-21T01:47:09;99295.88;;;16.62;100.00
10638;BME280;47007;49.252;8.904;2023-05-21T01:47:53;99307.50;;;16.68;100.00
10638;BME280;47007;49.252;8.904;2023-05-21T01:48:37;99310.25;;;16.61;100.00
10638;BME280;47007;49.252;8.904;2023-05-21T01:49:19;99308.63;;;16.60;100.00
10638;BME280;47007;49.252;8.904;2023-05-21T01:50:04;99309.69;;;16.59;100.00
10638;BME280;47007;49.252;8.904;2023-05-21T01:50:46;99302.84;;;16.51;100.00
10638;BME280;47007;49.252;8.904;2023-05-21T01:51:28;99305.63;;;16.57;100.00
10638;BME280;47007;49.252;8.904;2023-05-21T01:52:12;99306.69;;;16.56;100.00
10638;BME280;47007;49.252;8.904;2023-05-21T01:52:57;99306.91;;;16.54;100.00
10638;BME280;47007;49.252;8.904;2023-05-21T01:53:42;99304.69;;;16.51;100.00
10638;BME280;47007;49.252;8.904;2023-05-21T01:54:23;99316.56;;;16.55;100.00
10638;BME280;47007;49.252;8.904;2023-05-21T01:55:05;99304.47;;;16.52;100.00
10638;BME280;47007;49.252;8.904;2023-05-21T01:55:47;99307.81;;;16.48;100.00
10638;BME280;47007;49.252;8.904;2023-05-21T01:56:29;99303.28;;;16.48;100.00
10638;BME280;47007;49.252;8.904;2023-05-21T01:57:15;99311.31;;;16.48;100.00
10638;BME280;47007;49.252;8.904;2023-05-21T01:57:58;99309.69;;;16.47;100.00
10638;BME280;47007;49.252;8.904;2023-05-21T01:58:43;99290.97;;;16.36;100.00
10638;BME280;47007;49.252;8.904;2023-05-21T01:59:25;99309.09;;;16.45;100.00
10638;BME280;47007;49.252;8.904;2023-05-21T02:00:08;99307.72;;;16.43;100.00
10638;BME280;47007;49.252;8.904;2023-05-21T02:00:55;99304.13;;;16.37;100.00
10638;BME280;47007;49.252;8.904;2023-05-21T02:01:37;99317.03;;;16.40;100.00
10638;BME280;47007;49.252;8.904;2023-05-21T02:02:20;99313.19;;;16.36;100.00
10638;BME280;47007;49.252;8.904;2023-05-21T02:03:04;99313.41;;;16.35;100.00
10638;BME280;47007;49.252;8.904;2023-05-21T02:03:46;99290.63;;;16.21;100.00
10638;BME280;47007;49.252;8.904;2023-05-21T02:04:28;99291.66;;;16.20;100.00
10638;BME280;47007;49.252;8.904;2023-05-21T02:05:10;99294.22;;;16.14;100.00
10638;BME280;47007;49.252;8.904;2023-05-21T02:05:52;99296.44;;;16.17;100.00
10638;BME280;47007;49.252;8.904;2023-05-21T02:06:36;99306.78;;;16.26;100.00
10638;BME280;47007;49.252;8.904;2023-05-21T02:07:20;99312.97;;;16.26;100.00
10638;BME280;47007;49.252;8.904;2023-05-21T02:08:03;99300.75;;;16.19;100.00
10638;BME280;47007;49.252;8.904;2023-05-21T02:08:49;99293.41;;;16.14;100.00
10638;BME280;47007;49.252;8.904;2023-05-21T02:09:31;99295.88;;;16.15;100.00
10638;BME280;47007;49.252;8.904;2023-05-21T02:10:14;99299.59;;;16.14;100.00
10638;BME280;47007;49.252;8.904;2023-05-21T02:10:56;99314.22;;;16.24;100.00
10638;BME280;47007;49.252;8.904;2023-05-21T02:11:38;99300.41;;;16.15;100.00
10638;BME280;47007;49.252;8.904;2023-05-21T02:12:19;99308.28;;;16.22;100.00
10638;BME280;47007;49.252;8.904;2023-05-21T02:13:02;99311.56;;;16.24;100.00
10638;BME280;47007;49.252;8.904;2023-05-21T02:13:44;99298.31;;;16.17;100.00
10638;BME280;47007;49.252;8.904;2023-05-21T02:14:26;99288.66;;;16.16;100.00
10638;BME280;47007;49.252;8.904;2023-05-21T02:15:08;99288.44;;;16.17;100.00
10638;BME280;47007;49.252;8.904;2023-05-21T02:15:51;99306.91;;;16.31;100.00
10638;BME280;47007;49.252;8.904;2023-05-21T02:16:35;99303.88;;;16.27;100.00
10638;BME280;47007;49.252;8.904;2023-05-21T02:17:19;99299.72;;;16.31;100.00
10638;BME280;47007;49.252;8.904;2023-05-21T02:18:02;99285.03;;;16.22;100.00
10638;BME280;47007;49.252;8.904;2023-05-21T02:18:45;99302.38;;;16.31;100.00
10638;BME280;47007;49.252;8.904;2023-05-21T02:19:28;99292.59;;;16.25;100.00
10638;BME280;47007;49.252;8.904;2023-05-21T02:20:11;99294.38;;;16.31;100.00
10638;BME280;47007;49.252;8.904;2023-05-21T02:20:53;99299.94;;;16.30;100.00
10638;BME280;47007;49.252;8.904;2023-05-21T02:21:36;99300.84;;;16.35;100.00
10638;BME280;47007;49.252;8.904;2023-05-21T02:22:17;99279.91;;;16.21;100.00
10638;BME280;47007;49.252;8.904;2023-05-21T02:22:59;99291.56;;;16.26;100.00
10638;BME280;47007;49.252;8.904;2023-05-21T02:23:41;99299.22;;;16.34;100.00
10638;BME280;47007;49.252;8.904;2023-05-21T02:24:23;99288.66;;;16.28;100.00
10638;BME280;47007;49.252;8.904;2023-05-21T02:25:06;99289.94;;;16.25;100.00
10638;BME280;47007;49.252;8.904;2023-05-21T02:25:48;99304.25;;;16.31;100.00
10638;BME280;47007;49.252;8.904;2023-05-21T02:26:30;99301.00;;;16.29;100.00
10638;BME280;47007;49.252;8.904;2023-05-21T02:27:12;99294.59;;;16.18;100.00
10638;BME280;47007;49.252;8.904;2023-05-21T02:27:54;99293.66;;;16.24;100.00
10638;BME280;47007;49.252;8.904;2023-05-21T02:28:37;99308.66;;;16.25;100.00
10638;BME280;47007;49.252;8.904;2023-05-21T02:29:19;99268.31;;;16.03;100.00
10638;BME280;47007;49.252;8.904;2023-05-21T02:30:05;99300.63;;;16.25;100.00
10638;BME280;47007;49.252;8.904;2023-05-21T02:30:47;99303.53;;;16.24;100.00
10638;BME280;47007;49.252;8.904;2023-05-21T02:31:29;99298.19;;;16.24;100.00
10638;BME280;47007;49.252;8.904;2023-05-21T02:32:11;99304.81;;;16.21;100.00
10638;BME280;47007;49.252;8.904;2023-05-21T02:32:54;99306.09;;;16.19;100.00
10638;BME280;47007;49.252;8.904;2023-05-21T02:33:35;99280.72;;;16.09;100.00
10638;BME280;47007;49.252;8.904;2023-05-21T02:34:20;99296.91;;;16.14;100.00
10638;BME280;47007;49.252;8.904;2023-05-21T02:35:03;99298.63;;;16.09;100.00
10638;BME280;47007;49.252;8.904;2023-05-21T02:35:46;99286.22;;;16.03;100.00
10638;BME280;47007;49.252;8.904;2023-05-21T02:36:28;99298.63;;;16.09;100.00
10638;BME280;47007;49.252;8.904;2023-05-21T02:37:13;99282.25;;;16.05;100.00
10638;BME280;47007;49.252;8.904;2023-05-21T02:37:55;99299.81;;;16.13;100.00
10638;BME280;47007;49.252;8.904;2023-05-21T02:38:40;99295.28;;;16.13;100.00
10638;BME280;47007;49.252;8.904;2023-05-21T02:39:23;99293.88;;;16.11;100.00
10638;BME280;47007;49.252;8.904;2023-05-21T02:40:07;99297.72;;;16.15;100.00
10638;BME280;47007;49.252;8.904;2023-05-21T02:40:50;99287.63;;;16.05;100.00
10638;BME280;47007;49.252;8.904;2023-05-21T02:41:32;99284.13;;;16.05;100.00
10638;BME280;47007;49.252;8.904;2023-05-21T02:42:14;99275.97;;;16.00;100.00
10638;BME280;47007;49.252;8.904;2023-05-21T02:42:55;99292.25;;;16.10;100.00
10638;BME280;47007;49.252;8.904;2023-05-21T02:43:37;99296.31;;;16.12;100.00
10638;BME280;47007;49.252;8.904;2023-05-21T02:44:19;99299.59;;;16.14;100.00
10638;BME280;47007;49.252;8.904;2023-05-21T02:45:02;99298.19;;;16.12;100.00
10638;BME280;47007;49.252;8.904;2023-05-21T02:45:46;99301.06;;;16.10;100.00
10638;BME280;47007;49.252;8.904;2023-05-21T02:46:28;99296.78;;;16.09;100.00
10638;BME280;47007;49.252;8.904;2023-05-21T02:47:10;99298.06;;;16.07;100.00
10638;BME280;47007;49.252;8.904;2023-05-21T02:47:53;99303.44;;;16.07;100.00
10638;BME280;47007;49.252;8.904;2023-05-21T02:48:35;99296.91;;;16.03;100.00
10638;BME280;47007;49.252;8.904;2023-05-21T02:49:18;99297.00;;;15.96;100.00
10638;BME280;47007;49.252;8.904;2023-05-21T02:50:01;99281.66;;;15.92;100.00
10638;BME280;47007;49.252;8.904;2023-05-21T02:50:44;99270.97;;;15.92;100.00
10638;BME280;47007;49.252;8.904;2023-05-21T02:51:26;99291.78;;;16.01;100.00
10638;BME280;47007;49.252;8.904;2023-05-21T02:52:07;99300.16;;;16.05;100.00
10638;BME280;47007;49.252;8.904;2023-05-21T02:52:49;99296.44;;;16.06;100.00
10638;BME280;47007;49.252;8.904;2023-05-21T02:53:31;99284.44;;;15.97;100.00
10638;BME280;47007;49.252;8.904;2023-05-21T02:54:14;99300.97;;;16.05;100.00
10638;BME280;47007;49.252;8.904;2023-05-21T02:54:55;99299.34;;;16.04;100.00
10638;BME280;47007;49.252;8.904;2023-05-21T02:55:37;99295.84;;;16.04;100.00
10638;BME280;47007;49.252;8.904;2023-05-21T02:56:19;99296.91;;;16.03;100.00
10638;BME280;47007;49.252;8.904;2023-05-21T02:57:01;99287.00;;;15.92;100.00
10638;BME280;47007;49.252;8.904;2023-05-21T02:57:43;99289.47;;;15.93;100.00
10638;BME280;47007;49.252;8.904;2023-05-21T02:58:24;99304.56;;;15.99;100.00
10638;BME280;47007;49.252;8.904;2023-05-21T02:59:06;99297.00;;;15.96;100.00
10638;BME280;47007;49.252;8.904;2023-05-21T02:59:50;99273.28;;;15.76;100.00
10638;BME280;47007;49.252;8.904;2023-05-21T03:00:32;99285.25;;;15.86;100.00
10638;BME280;47007;49.252;8.904;2023-05-21T03:01:14;99298.53;;;15.92;100.00
10638;BME280;47007;49.252;8.904;2023-05-21T03:01:56;99293.03;;;15.87;100.00
10638;BME280;47007;49.252;8.904;2023-05-21T03:02:39;99303.63;;;15.94;100.00
10638;BME280;47007;49.252;8.904;2023-05-21T03:03:21;99288.06;;;15.91;100.00
10638;BME280;47007;49.252;8.904;2023-05-21T03:04:03;99281.09;;;15.90;100.00
10638;BME280;47007;49.252;8.904;2023-05-21T03:04:45;99295.63;;;16.05;100.00
10638;BME280;47007;49.252;8.904;2023-05-21T03:05:27;99299.94;;;16.06;100.00
10638;BME280;47007;49.252;8.904;2023-05-21T03:06:09;99288.66;;;16.04;100.00
10638;BME280;47007;49.252;8.904;2023-05-21T03:06:50;99298.41;;;16.10;100.00
10638;BME280;47007;49.252;8.904;2023-05-21T03:07:38;99273.97;;;15.95;100.00
10638;BME280;47007;49.252;8.904;2023-05-21T03:08:19;99281.31;;;16.00;100.00
10638;BME280;47007;49.252;8.904;2023-05-21T03:09:02;99295.16;;;16.08;100.00
10638;BME280;47007;49.252;8.904;2023-05-21T03:09:46;99290.16;;;16.00;100.00
10638;BME280;47007;49.252;8.904;2023-05-21T03:10:28;99278.66;;;16.00;100.00
10638;BME280;47007;49.252;8.904;2023-05-21T03:11:10;99273.66;;;15.92;100.00
10638;BME280;47007;49.252;8.904;2023-05-21T03:11:52;99303.06;;;16.03;100.00
10638;BME280;47007;49.252;8.904;2023-05-21T03:12:34;99293.19;;;16.04;100.00
10638;BME280;47007;49.252;8.904;2023-05-21T03:13:15;99297.50;;;16.05;100.00
10638;BME280;47007;49.252;8.904;2023-05-21T03:13:57;99277.25;;;15.97;100.00
10638;BME280;47007;49.252;8.904;2023-05-21T03:14:39;99293.06;;;16.10;100.00
10638;BME280;47007;49.252;8.904;2023-05-21T03:15:23;99280.16;;;16.07;100.00
10638;BME280;47007;49.252;8.904;2023-05-21T03:16:05;99296.44;;;16.17;100.00
10638;BME280;47007;49.252;8.904;2023-05-21T03:16:46;99292.47;;;16.20;100.00
10638;BME280;47007;49.252;8.904;2023-05-21T03:17:31;99292.84;;;16.24;100.00
10638;BME280;47007;49.252;8.904;2023-05-21T03:18:15;99293.19;;;16.27;100.00
10638;BME280;47007;49.252;8.904;2023-05-21T03:18:57;99263.78;;;16.15;100.00
10638;BME280;47007;49.252;8.904;2023-05-21T03:19:40;99293.41;;;16.37;100.00
10638;BME280;47007;49.252;8.904;2023-05-21T03:20:22;99277.81;;;16.34;100.00
10638;BME280;47007;49.252;8.904;2023-05-21T03:21:04;99262.94;;;16.38;100.00
10638;BME280;47007;49.252;8.904;2023-05-21T03:21:46;99288.75;;;16.56;100.00
10638;BME280;47007;49.252;8.904;2023-05-21T03:22:32;99274.22;;;16.52;100.00
10638;BME280;47007;49.252;8.904;2023-05-21T03:23:13;99276.53;;;16.60;100.00
10638;BME280;47007;49.252;8.904;2023-05-21T03:23:58;99289.09;;;16.71;100.00
10638;BME280;47007;49.252;8.904;2023-05-21T03:24:40;99277.94;;;16.74;100.00
10638;BME280;47007;49.252;8.904;2023-05-21T03:25:22;99270.59;;;16.70;100.00
10638;BME280;47007;49.252;8.904;2023-05-21T03:26:07;99281.38;;;16.86;100.00
10638;BME280;47007;49.252;8.904;2023-05-21T03:26:49;99270.81;;;16.80;100.00
10638;BME280;47007;49.252;8.904;2023-05-21T03:27:31;99285.00;;;16.92;100.00
10638;BME280;47007;49.252;8.904;2023-05-21T03:28:19;99287.75;;;16.97;100.00
10638;BME280;47007;49.252;8.904;2023-05-21T03:29:02;99269.41;;;16.89;100.00
10638;BME280;47007;49.252;8.904;2023-05-21T03:29:44;99282.97;;;16.99;100.00
10638;BME280;47007;49.252;8.904;2023-05-21T03:30:26;99279.84;;;17.02;100.00
10638;BME280;47007;49.252;8.904;2023-05-21T03:31:33;99288.75;;;17.08;100.00
10638;BME280;47007;49.252;8.904;2023-05-21T03:32:20;99268.53;;;17.00;100.00
10638;BME280;47007;49.252;8.904;2023-05-21T03:33:03;99277.75;;;17.04;100.00
10638;BME280;47007;49.252;8.904;2023-05-21T03:33:45;99267.97;;;16.98;100.00
10638;BME280;47007;49.252;8.904;2023-05-21T03:34:37;99280.19;;;17.06;100.00
10638;BME280;47007;49.252;8.904;2023-05-21T03:35:19;99290.16;;;17.10;100.00
10638;BME280;47007;49.252;8.904;2023-05-21T03:36:01;99276.41;;;17.07;100.00
10638;BME280;47007;49.252;8.904;2023-05-21T03:36:46;99277.97;;;17.03;100.00
10638;BME280;47007;49.252;8.904;2023-05-21T03:37:29;99283.97;;;17.10;100.00
10638;BME280;47007;49.252;8.904;2023-05-21T03:38:11;99285.63;;;17.11;100.00
10638;BME280;47007;49.252;8.904;2023-05-21T03:38:53;99266.22;;;17.04;100.00
10638;BME280;47007;49.252;8.904;2023-05-21T03:39:35;99286.19;;;17.13;100.00
10638;BME280;47007;49.252;8.904;2023-05-21T03:40:17;99274.00;;;17.05;100.00
10638;BME280;47007;49.252;8.904;2023-05-21T03:40:58;99281.88;;;17.12;100.00
10638;BME280;47007;49.252;8.904;2023-05-21T03:41:40;99285.38;;;17.12;100.00
10638;BME280;47007;49.252;8.904;2023-05-21T03:42:27;99279.22;;;17.12;100.00
10638;BME280;47007;49.252;8.904;2023-05-21T03:43:10;99255.31;;;16.94;100.00
10638;BME280;47007;49.252;8.904;2023-05-21T03:43:51;99279.69;;;17.09;100.00
10638;BME280;47007;49.252;8.904;2023-05-21T03:44:36;99271.56;;;17.04;100.00
10638;BME280;47007;49.252;8.904;2023-05-21T03:45:40;99279.69;;;17.09;100.00
10638;BME280;47007;49.252;8.904;2023-05-21T03:46:54;99286.09;;;17.08;100.00
10638;BME280;47007;49.252;8.904;2023-05-21T03:47:41;99264.72;;;16.96;100.00
10638;BME280;47007;49.252;8.904;2023-05-21T03:48:24;99272.28;;;16.99;100.00
10638;BME280;47007;49.252;8.904;2023-05-21T03:49:06;99280.19;;;17.06;100.00